sensor_id;sensor_type;location;lat;lon;timestamp;P1;durP1;ratioP1;P2;durP2;ratioP2
30247;SDS011;17063;50.892;4.702;2024-03-07T00:01:14;34.30;;;17.90;;
30247;SDS011;17063;50.892;4.702;2024-03-07T00:03:42;33.43;;;17.83;;
30247;SDS011;17063;50.892;4.702;2024-03-07T00:06:09;37.47;;;18.87;;
30247;SDS011;17063;50.892;4.702;2024-03-07T00:08:35;37.97;;;19.17;;
30247;SDS011;17063;50.892;4.702;2024-03-07T00:11:03;33.17;;;18.57;;
30247;SDS011;17063;50.892;4.702;2024-03-07T00:13:29;32.47;;;16.43;;
30247;SDS011;17063;50.892;4.702;2024-03-07T00:15:57;32.47;;;16.00;;
30247;SDS011;17063;50.892;4.702;2024-03-07T00:18:24;32.73;;;15.97;;
30247;SDS011;17063;50.892;4.702;2024-03-07T00:20:51;28.53;;;15.33;;
30247;SDS011;17063;50.892;4.702;2024-03-07T00:23:19;31.70;;;14.40;;
30247;SDS011;17063;50.892;4.702;2024-03-07T00:25:46;33.73;;;17.00;;
30247;SDS011;17063;50.892;4.702;2024-03-07T00:28:16;27.10;;;14.80;;
30247;SDS011;17063;50.892;4.702;2024-03-07T00:30:44;27.17;;;15.40;;
30247;SDS011;17063;50.892;4.702;2024-03-07T00:33:15;27.83;;;15.27;;
30247;SDS011;17063;50.892;4.702;2024-03-07T00:35:42;28.53;;;15.40;;
30247;SDS011;17063;50.892;4.702;2024-03-07T00:38:11;30.30;;;16.50;;
30247;SDS011;17063;50.892;4.702;2024-03-07T00:40:38;30.27;;;15.87;;
30247;SDS011;17063;50.892;4.702;2024-03-07T00:43:05;28.83;;;15.50;;
30247;SDS011;17063;50.892;4.702;2024-03-07T00:45:33;30.17;;;16.13;;
30247;SDS011;17063;50.892;4.702;2024-03-07T00:47:59;34.53;;;16.73;;
30247;SDS011;17063;50.892;4.702;2024-03-07T00:50:27;36.67;;;17.33;;
30247;SDS011;17063;50.892;4.702;2024-03-07T00:52:54;33.33;;;16.67;;
30247;SDS011;17063;50.892;4.702;2024-03-07T00:55:21;34.23;;;18.03;;
30247;SDS011;17063;50.892;4.702;2024-03-07T00:57:49;33.80;;;17.60;;
30247;SDS011;17063;50.892;4.702;2024-03-07T01:00:16;37.47;;;18.53;;
30247;SDS011;17063;50.892;4.702;2024-03-07T01:02:49;37.67;;;17.93;;
30247;SDS011;17063;50.892;4.702;2024-03-07T01:05:19;38.53;;;19.03;;
30247;SDS011;17063;50.892;4.702;2024-03-07T01:07:48;38.10;;;19.17;;
30247;SDS011;17063;50.892;4.702;2024-03-07T01:10:15;37.50;;;19.07;;
30247;SDS011;17063;50.892;4.702;2024-03-07T01:12:43;35.57;;;18.20;;
30247;SDS011;17063;50.892;4.702;2024-03-07T01:15:10;42.27;;;19.87;;
30247;SDS011;17063;50.892;4.702;2024-03-07T01:17:38;38.93;;;19.57;;
30247;SDS011;17063;50.892;4.702;2024-03-07T01:20:05;38.67;;;19.33;;
30247;SDS011;17063;50.892;4.702;2024-03-07T01:22:33;39.80;;;19.80;;
30247;SDS011;17063;50.892;4.702;2024-03-07T01:24:59;37.03;;;18.97;;
30247;SDS011;17063;50.892;4.702;2024-03-07T01:27:26;41.57;;;19.93;;
30247;SDS011;17063;50.892;4.702;2024-03-07T01:29:53;38.53;;;19.10;;
30247;SDS011;17063;50.892;4.702;2024-03-07T01:32:21;36.27;;;19.13;;
30247;SDS011;17063;50.892;4.702;2024-03-07T01:34:48;41.83;;;19.60;;
30247;SDS011;17063;50.892;4.702;2024-03-07T01:37:14;42.40;;;20.80;;
30247;SDS011;17063;50.892;4.702;2024-03-07T01:39:41;40.90;;;20.23;;
30247;SDS011;17063;50.892;4.702;2024-03-07T01:42:08;38.53;;;19.40;;
30247;SDS011;17063;50.892;4.702;2024-03-07T01:44:35;50.93;;;21.43;;
30247;SDS011;17063;50.892;4.702;2024-03-07T01:47:02;38.43;;;20.77;;
30247;SDS011;17063;50.892;4.702;2024-03-07T01:49:30;41.80;;;21.20;;
30247;SDS011;17063;50.892;4.702;2024-03-07T01:51:58;37.00;;;19.90;;
30247;SDS011;17063;50.892;4.702;2024-03-07T01:54:25;41.83;;;21.13;;
30247;SDS011;17063;50.892;4.702;2024-03-07T01:56:52;38.73;;;20.27;;
30247;SDS011;17063;50.892;4.702;2024-03-07T01:59:19;43.37;;;21.60;;
30247;SDS011;17063;50.892;4.702;2024-03-07T02:01:50;43.97;;;22.03;;
30247;SDS011;17063;50.892;4.702;2024-03-07T02:04:17;45.17;;;23.47;;
30247;SDS011;17063;50.892;4.702;2024-03-07T02:06:44;48.93;;;24.23;;
30247;SDS011;17063;50.892;4.702;2024-03-07T02:09:11;51.23;;;24.57;;
30247;SDS011;17063;50.892;4.702;2024-03-07T02:11:38;53.43;;;24.63;;
30247;SDS011;17063;50.892;4.702;2024-03-07T02:14:05;48.50;;;25.20;;
30247;SDS011;17063;50.892;4.702;2024-03-07T02:16:33;49.13;;;25.40;;
30247;SDS011;17063;50.892;4.702;2024-03-07T02:18:59;50.53;;;24.53;;
30247;SDS011;17063;50.892;4.702;2024-03-07T02:21:27;44.93;;;24.37;;
30247;SDS011;17063;50.892;4.702;2024-03-07T02:23:54;47.20;;;22.93;;
30247;SDS011;17063;50.892;4.702;2024-03-07T02:26:21;49.30;;;24.20;;
30247;SDS011;17063;50.892;4.702;2024-03-07T02:28:48;45.23;;;23.83;;
30247;SDS011;17063;50.892;4.702;2024-03-07T02:31:16;42.63;;;22.73;;
30247;SDS011;17063;50.892;4.702;2024-03-07T02:33:43;49.33;;;23.67;;
30247;SDS011;17063;50.892;4.702;2024-03-07T02:36:10;46.50;;;24.27;;
30247;SDS011;17063;50.892;4.702;2024-03-07T02:38:36;46.20;;;22.93;;
30247;SDS011;17063;50.892;4.702;2024-03-07T02:41:03;46.10;;;24.50;;
30247;SDS011;17063;50.892;4.702;2024-03-07T02:43:30;50.53;;;24.00;;
30247;SDS011;17063;50.892;4.702;2024-03-07T02:45:57;49.10;;;24.20;;
30247;SDS011;17063;50.892;4.702;2024-03-07T02:48:24;46.60;;;23.70;;
30247;SDS011;17063;50.892;4.702;2024-03-07T02:50:51;43.60;;;23.97;;
30247;SDS011;17063;50.892;4.702;2024-03-07T02:53:18;49.97;;;24.23;;
30247;SDS011;17063;50.892;4.702;2024-03-07T02:55:45;48.13;;;23.37;;
30247;SDS011;17063;50.892;4.702;2024-03-07T02:58:12;43.97;;;23.67;;
30247;SDS011;17063;50.892;4.702;2024-03-07T03:00:38;51.17;;;24.67;;
30247;SDS011;17063;50.892;4.702;2024-03-07T03:03:05;50.37;;;24.87;;
30247;SDS011;17063;50.892;4.702;2024-03-07T03:05:32;50.47;;;25.77;;
30247;SDS011;17063;50.892;4.702;2024-03-07T03:07:59;52.17;;;25.97;;
30247;SDS011;17063;50.892;4.702;2024-03-07T03:10:27;51.33;;;24.70;;
30247;SDS011;17063;50.892;4.702;2024-03-07T03:12:57;50.93;;;25.80;;
30247;SDS011;17063;50.892;4.702;2024-03-07T03:15:26;53.67;;;25.57;;
30247;SDS011;17063;50.892;4.702;2024-03-07T03:17:53;49.77;;;24.17;;
30247;SDS011;17063;50.892;4.702;2024-03-07T03:20:20;52.97;;;25.57;;
30247;SDS011;17063;50.892;4.702;2024-03-07T03:23:00;55.43;;;26.17;;
30247;SDS011;17063;50.892;4.702;2024-03-07T03:25:45;54.60;;;27.27;;
30247;SDS011;17063;50.892;4.702;2024-03-07T03:28:12;52.90;;;25.77;;
30247;SDS011;17063;50.892;4.702;2024-03-07T03:30:39;53.43;;;26.97;;
30247;SDS011;17063;50.892;4.702;2024-03-07T03:33:08;53.30;;;27.20;;
30247;SDS011;17063;50.892;4.702;2024-03-07T03:35:35;56.87;;;27.53;;
30247;SDS011;17063;50.892;4.702;2024-03-07T03:38:06;51.53;;;26.07;;
30247;SDS011;17063;50.892;4.702;2024-03-07T03:40:34;53.07;;;27.20;;
30247;SDS011;17063;50.892;4.702;2024-03-07T03:43:01;51.60;;;25.80;;
30247;SDS011;17063;50.892;4.702;2024-03-07T03:45:28;50.57;;;25.37;;
30247;SDS011;17063;50.892;4.702;2024-03-07T03:47:55;58.73;;;26.67;;
30247;SDS011;17063;50.892;4.702;2024-03-07T03:50:23;50.47;;;25.00;;
30247;SDS011;17063;50.892;4.702;2024-03-07T03:52:50;53.13;;;26.03;;
30247;SDS011;17063;50.892;4.702;2024-03-07T03:55:17;53.17;;;26.60;;
30247;SDS011;17063;50.892;4.702;2024-03-07T03:57:44;56.93;;;26.47;;
30247;SDS011;17063;50.892;4.702;2024-03-07T04:00:13;49.80;;;25.53;;
30247;SDS011;17063;50.892;4.702;2024-03-07T04:02:41;47.70;;;25.00;;
30247;SDS011;17063;50.892;4.702;2024-03-07T04:05:09;53.17;;;25.27;;
30247;SDS011;17063;50.892;4.702;2024-03-07T04:07:38;56.53;;;25.63;;
30247;SDS011;17063;50.892;4.702;2024-03-07T04:10:05;56.00;;;26.63;;
30247;SDS011;17063;50.892;4.702;2024-03-07T04:12:36;50.27;;;26.10;;
30247;SDS011;17063;50.892;4.702;2024-03-07T04:15:05;48.20;;;25.00;;
30247;SDS011;17063;50.892;4.702;2024-03-07T04:17:35;53.60;;;25.67;;
30247;SDS011;17063;50.892;4.702;2024-03-07T04:20:04;55.10;;;26.13;;
30247;SDS011;17063;50.892;4.702;2024-03-07T04:22:37;52.00;;;25.93;;
30247;SDS011;17063;50.892;4.702;2024-03-07T04:25:07;53.27;;;25.63;;
30247;SDS011;17063;50.892;4.702;2024-03-07T04:27:36;51.30;;;26.00;;
30247;SDS011;17063;50.892;4.702;2024-03-07T04:30:04;55.50;;;25.90;;
30247;SDS011;17063;50.892;4.702;2024-03-07T04:32:32;57.60;;;26.23;;
30247;SDS011;17063;50.892;4.702;2024-03-07T04:35:00;55.80;;;26.50;;
30247;SDS011;17063;50.892;4.702;2024-03-07T04:37:30;58.10;;;25.80;;
30247;SDS011;17063;50.892;4.702;2024-03-07T04:39:57;52.20;;;26.23;;
30247;SDS011;17063;50.892;4.702;2024-03-07T04:42:24;57.17;;;26.97;;
30247;SDS011;17063;50.892;4.702;2024-03-07T04:44:52;56.77;;;26.37;;
30247;SDS011;17063;50.892;4.702;2024-03-07T04:47:19;55.93;;;25.90;;
30247;SDS011;17063;50.892;4.702;2024-03-07T04:49:46;55.27;;;25.93;;
30247;SDS011;17063;50.892;4.702;2024-03-07T04:52:13;56.60;;;26.93;;
30247;SDS011;17063;50.892;4.702;2024-03-07T04:54:40;62.97;;;27.73;;
30247;SDS011;17063;50.892;4.702;2024-03-07T04:57:06;53.13;;;26.17;;
30247;SDS011;17063;50.892;4.702;2024-03-07T04:59:33;50.53;;;25.27;;
30247;SDS011;17063;50.892;4.702;2024-03-07T05:02:00;52.43;;;25.40;;
30247;SDS011;17063;50.892;4.702;2024-03-07T05:04:28;54.10;;;26.27;;
30247;SDS011;17063;50.892;4.702;2024-03-07T05:06:57;58.60;;;27.17;;
30247;SDS011;17063;50.892;4.702;2024-03-07T05:09:24;61.27;;;27.80;;
30247;SDS011;17063;50.892;4.702;2024-03-07T05:11:53;57.23;;;26.67;;
30247;SDS011;17063;50.892;4.702;2024-03-07T05:14:21;64.53;;;28.17;;
30247;SDS011;17063;50.892;4.702;2024-03-07T05:16:52;58.87;;;26.97;;
30247;SDS011;17063;50.892;4.702;2024-03-07T05:19:37;66.20;;;28.47;;
30247;SDS011;17063;50.892;4.702;2024-03-07T05:22:04;58.80;;;27.33;;
30247;SDS011;17063;50.892;4.702;2024-03-07T05:24:31;60.43;;;28.23;;
30247;SDS011;17063;50.892;4.702;2024-03-07T05:27:00;65.37;;;29.40;;
30247;SDS011;17063;50.892;4.702;2024-03-07T05:29:27;63.97;;;29.97;;
30247;SDS011;17063;50.892;4.702;2024-03-07T05:31:54;62.90;;;27.83;;
30247;SDS011;17063;50.892;4.702;2024-03-07T05:34:21;64.47;;;30.43;;
30247;SDS011;17063;50.892;4.702;2024-03-07T05:36:50;65.17;;;30.53;;
30247;SDS011;17063;50.892;4.702;2024-03-07T05:39:18;62.60;;;28.97;;
30247;SDS011;17063;50.892;4.702;2024-03-07T05:41:48;65.33;;;29.17;;
30247;SDS011;17063;50.892;4.702;2024-03-07T05:44:15;71.40;;;30.03;;
30247;SDS011;17063;50.892;4.702;2024-03-07T05:46:42;73.70;;;31.77;;
30247;SDS011;17063;50.892;4.702;2024-03-07T05:49:17;65.10;;;30.07;;
30247;SDS011;17063;50.892;4.702;2024-03-07T05:51:47;66.97;;;30.17;;
30247;SDS011;17063;50.892;4.702;2024-03-07T05:54:14;67.93;;;30.93;;
30247;SDS011;17063;50.892;4.702;2024-03-07T05:56:42;74.70;;;32.57;;
30247;SDS011;17063;50.892;4.702;2024-03-07T05:59:09;74.33;;;30.63;;
30247;SDS011;17063;50.892;4.702;2024-03-07T06:01:37;75.10;;;30.80;;
30247;SDS011;17063;50.892;4.702;2024-03-07T06:04:05;83.87;;;33.33;;
30247;SDS011;17063;50.892;4.702;2024-03-07T06:06:33;76.57;;;31.60;;
30247;SDS011;17063;50.892;4.702;2024-03-07T06:09:05;81.60;;;31.70;;
30247;SDS011;17063;50.892;4.702;2024-03-07T06:11:35;74.77;;;31.80;;
30247;SDS011;17063;50.892;4.702;2024-03-07T06:14:03;79.10;;;32.50;;
30247;SDS011;17063;50.892;4.702;2024-03-07T06:16:38;82.53;;;33.37;;
30247;SDS011;17063;50.892;4.702;2024-03-07T06:19:06;91.80;;;32.00;;
30247;SDS011;17063;50.892;4.702;2024-03-07T06:21:38;76.40;;;31.73;;
30247;SDS011;17063;50.892;4.702;2024-03-07T06:24:09;79.67;;;32.93;;
30247;SDS011;17063;50.892;4.702;2024-03-07T06:26:38;73.47;;;31.40;;
30247;SDS011;17063;50.892;4.702;2024-03-07T06:29:16;78.23;;;32.20;;
30247;SDS011;17063;50.892;4.702;2024-03-07T06:31:44;80.97;;;31.77;;
30247;SDS011;17063;50.892;4.702;2024-03-07T06:34:14;78.53;;;31.43;;
30247;SDS011;17063;50.892;4.702;2024-03-07T06:36:41;75.50;;;30.37;;
30247;SDS011;17063;50.892;4.702;2024-03-07T06:39:08;74.07;;;30.60;;
30247;SDS011;17063;50.892;4.702;2024-03-07T06:41:39;78.57;;;32.00;;
30247;SDS011;17063;50.892;4.702;2024-03-07T06:44:08;73.43;;;29.77;;
30247;SDS011;17063;50.892;4.702;2024-03-07T06:46:36;74.83;;;29.73;;
30247;SDS011;17063;50.892;4.702;2024-03-07T06:49:03;74.23;;;30.80;;
30247;SDS011;17063;50.892;4.702;2024-03-07T06:51:33;74.57;;;30.83;;
30247;SDS011;17063;50.892;4.702;2024-03-07T06:53:59;77.73;;;31.13;;
30247;SDS011;17063;50.892;4.702;2024-03-07T06:56:26;75.47;;;29.77;;
30247;SDS011;17063;50.892;4.702;2024-03-07T06:58:53;88.53;;;31.73;;
30247;SDS011;17063;50.892;4.702;2024-03-07T07:01:20;74.50;;;30.03;;
30247;SDS011;17063;50.892;4.702;2024-03-07T07:03:47;80.47;;;31.33;;
30247;SDS011;17063;50.892;4.702;2024-03-07T07:06:15;76.03;;;29.53;;
30247;SDS011;17063;50.892;4.702;2024-03-07T07:08:43;79.17;;;28.90;;
30247;SDS011;17063;50.892;4.702;2024-03-07T07:11:12;87.73;;;29.93;;
30247;SDS011;17063;50.892;4.702;2024-03-07T07:13:40;86.73;;;30.83;;
30247;SDS011;17063;50.892;4.702;2024-03-07T07:16:08;80.90;;;29.73;;
30247;SDS011;17063;50.892;4.702;2024-03-07T07:18:36;82.70;;;30.67;;
30247;SDS011;17063;50.892;4.702;2024-03-07T07:21:05;81.37;;;30.30;;
30247;SDS011;17063;50.892;4.702;2024-03-07T07:23:32;78.60;;;31.17;;
30247;SDS011;17063;50.892;4.702;2024-03-07T07:26:00;80.33;;;29.70;;
30247;SDS011;17063;50.892;4.702;2024-03-07T07:28:27;81.77;;;30.57;;
30247;SDS011;17063;50.892;4.702;2024-03-07T07:30:54;69.93;;;28.07;;
30247;SDS011;17063;50.892;4.702;2024-03-07T07:33:20;77.53;;;30.00;;
30247;SDS011;17063;50.892;4.702;2024-03-07T07:35:48;74.87;;;30.20;;
30247;SDS011;17063;50.892;4.702;2024-03-07T07:38:14;75.27;;;29.53;;
30247;SDS011;17063;50.892;4.702;2024-03-07T07:40:42;74.67;;;28.37;;
30247;SDS011;17063;50.892;4.702;2024-03-07T07:43:11;71.90;;;29.37;;
30247;SDS011;17063;50.892;4.702;2024-03-07T07:45:51;70.33;;;28.07;;
30247;SDS011;17063;50.892;4.702;2024-03-07T07:48:18;79.50;;;28.37;;
30247;SDS011;17063;50.892;4.702;2024-03-07T07:50:48;79.03;;;29.23;;
30247;SDS011;17063;50.892;4.702;2024-03-07T07:53:17;84.35;;;38.75;;
30247;SDS011;17063;50.892;4.702;2024-03-07T07:55:44;67.13;;;29.07;;
30247;SDS011;17063;50.892;4.702;2024-03-07T07:58:12;70.60;;;30.20;;
30247;SDS011;17063;50.892;4.702;2024-03-07T08:00:40;71.13;;;29.00;;
30247;SDS011;17063;50.892;4.702;2024-03-07T08:03:10;68.97;;;28.63;;
30247;SDS011;17063;50.892;4.702;2024-03-07T08:05:37;69.50;;;27.77;;
30247;SDS011;17063;50.892;4.702;2024-03-07T08:08:06;69.63;;;28.37;;
30247;SDS011;17063;50.892;4.702;2024-03-07T08:10:34;66.03;;;27.97;;
30247;SDS011;17063;50.892;4.702;2024-03-07T08:13:03;72.13;;;29.13;;
30247;SDS011;17063;50.892;4.702;2024-03-07T08:15:33;73.80;;;29.23;;
30247;SDS011;17063;50.892;4.702;2024-03-07T08:18:00;72.00;;;28.57;;
30247;SDS011;17063;50.892;4.702;2024-03-07T08:20:27;72.17;;;29.53;;
30247;SDS011;17063;50.892;4.702;2024-03-07T08:22:56;70.70;;;29.53;;
30247;SDS011;17063;50.892;4.702;2024-03-07T08:25:24;68.67;;;29.00;;
30247;SDS011;17063;50.892;4.702;2024-03-07T08:27:58;68.00;;;28.07;;
30247;SDS011;17063;50.892;4.702;2024-03-07T08:30:28;69.30;;;29.23;;
30247;SDS011;17063;50.892;4.702;2024-03-07T08:32:56;69.90;;;29.23;;
30247;SDS011;17063;50.892;4.702;2024-03-07T08:35:26;75.17;;;31.80;;
30247;SDS011;17063;50.892;4.702;2024-03-07T08:37:54;70.77;;;29.93;;
30247;SDS011;17063;50.892;4.702;2024-03-07T08:40:26;73.37;;;29.57;;
30247;SDS011;17063;50.892;4.702;2024-03-07T08:42:59;61.57;;;28.33;;
30247;SDS011;17063;50.892;4.702;2024-03-07T08:45:26;65.93;;;29.73;;
30247;SDS011;17063;50.892;4.702;2024-03-07T08:47:54;67.40;;;28.77;;
30247;SDS011;17063;50.892;4.702;2024-03-07T08:50:23;71.17;;;29.77;;
30247;SDS011;17063;50.892;4.702;2024-03-07T08:52:53;65.10;;;29.23;;
30247;SDS011;17063;50.892;4.702;2024-03-07T08:55:20;64.00;;;28.27;;
30247;SDS011;17063;50.892;4.702;2024-03-07T08:57:49;69.27;;;29.90;;
30247;SDS011;17063;50.892;4.702;2024-03-07T09:00:17;62.70;;;28.87;;
30247;SDS011;17063;50.892;4.702;2024-03-07T09:02:59;66.57;;;29.43;;
30247;SDS011;17063;50.892;4.702;2024-03-07T09:05:30;68.17;;;28.53;;
30247;SDS011;17063;50.892;4.702;2024-03-07T09:08:01;64.40;;;29.13;;
30247;SDS011;17063;50.892;4.702;2024-03-07T09:10:29;70.43;;;30.27;;
30247;SDS011;17063;50.892;4.702;2024-03-07T09:12:58;60.90;;;28.70;;
30247;SDS011;17063;50.892;4.702;2024-03-07T09:15:25;62.07;;;28.23;;
30247;SDS011;17063;50.892;4.702;2024-03-07T09:17:54;64.37;;;28.83;;
30247;SDS011;17063;50.892;4.702;2024-03-07T09:20:21;56.27;;;26.93;;
30247;SDS011;17063;50.892;4.702;2024-03-07T09:22:48;57.77;;;27.80;;
30247;SDS011;17063;50.892;4.702;2024-03-07T09:25:17;60.23;;;27.67;;
30247;SDS011;17063;50.892;4.702;2024-03-07T09:27:46;59.80;;;27.13;;
30247;SDS011;17063;50.892;4.702;2024-03-07T09:30:13;54.90;;;27.60;;
30247;SDS011;17063;50.892;4.702;2024-03-07T09:32:48;52.57;;;26.57;;
30247;SDS011;17063;50.892;4.702;2024-03-07T09:35:16;59.43;;;26.87;;
30247;SDS011;17063;50.892;4.702;2024-03-07T09:37:43;55.20;;;25.63;;
30247;SDS011;17063;50.892;4.702;2024-03-07T09:40:12;52.83;;;27.03;;
30247;SDS011;17063;50.892;4.702;2024-03-07T09:42:41;55.33;;;25.80;;
30247;SDS011;17063;50.892;4.702;2024-03-07T09:45:15;49.27;;;26.33;;
30247;SDS011;17063;50.892;4.702;2024-03-07T09:47:44;50.83;;;25.40;;
30247;SDS011;17063;50.892;4.702;2024-03-07T09:50:18;51.10;;;23.70;;
30247;SDS011;17063;50.892;4.702;2024-03-07T09:52:50;49.47;;;24.87;;
30247;SDS011;17063;50.892;4.702;2024-03-07T09:55:21;58.17;;;26.43;;
30247;SDS011;17063;50.892;4.702;2024-03-07T09:57:52;49.77;;;24.03;;
30247;SDS011;17063;50.892;4.702;2024-03-07T10:00:23;48.63;;;25.00;;
30247;SDS011;17063;50.892;4.702;2024-03-07T10:02:56;51.87;;;23.83;;
30247;SDS011;17063;50.892;4.702;2024-03-07T10:05:26;50.20;;;25.40;;
30247;SDS011;17063;50.892;4.702;2024-03-07T10:07:54;47.37;;;24.30;;
30247;SDS011;17063;50.892;4.702;2024-03-07T10:10:22;52.33;;;22.43;;
30247;SDS011;17063;50.892;4.702;2024-03-07T10:12:49;49.27;;;24.37;;
30247;SDS011;17063;50.892;4.702;2024-03-07T10:15:19;46.93;;;23.83;;
30247;SDS011;17063;50.892;4.702;2024-03-07T10:17:46;49.20;;;24.00;;
30247;SDS011;17063;50.892;4.702;2024-03-07T10:20:14;49.87;;;23.77;;
30247;SDS011;17063;50.892;4.702;2024-03-07T10:22:43;57.87;;;26.37;;
30247;SDS011;17063;50.892;4.702;2024-03-07T10:25:10;49.13;;;24.03;;
30247;SDS011;17063;50.892;4.702;2024-03-07T10:27:37;51.03;;;25.03;;
30247;SDS011;17063;50.892;4.702;2024-03-07T10:30:08;48.27;;;24.73;;
30247;SDS011;17063;50.892;4.702;2024-03-07T10:32:36;46.67;;;23.80;;
30247;SDS011;17063;50.892;4.702;2024-03-07T10:35:06;43.83;;;22.70;;
30247;SDS011;17063;50.892;4.702;2024-03-07T10:37:36;40.73;;;21.77;;
30247;SDS011;17063;50.892;4.702;2024-03-07T10:40:03;46.17;;;22.77;;
30247;SDS011;17063;50.892;4.702;2024-03-07T10:42:45;42.87;;;22.07;;
30247;SDS011;17063;50.892;4.702;2024-03-07T10:45:18;42.17;;;22.27;;
30247;SDS011;17063;50.892;4.702;2024-03-07T10:47:49;42.47;;;22.57;;
30247;SDS011;17063;50.892;4.702;2024-03-07T10:50:43;45.40;;;23.47;;
30247;SDS011;17063;50.892;4.702;2024-03-07T10:53:32;47.80;;;23.90;;
30247;SDS011;17063;50.892;4.702;2024-03-07T11:01:39;38.57;;;20.47;;
30247;SDS011;17063;50.892;4.702;2024-03-07T11:04:09;39.03;;;21.33;;
30247;SDS011;17063;50.892;4.702;2024-03-07T11:06:36;41.20;;;21.50;;
30247;SDS011;17063;50.892;4.702;2024-03-07T11:09:04;41.70;;;21.73;;
30247;SDS011;17063;50.892;4.702;2024-03-07T11:11:38;42.50;;;21.50;;
30247;SDS011;17063;50.892;4.702;2024-03-07T11:14:08;38.80;;;19.73;;
30247;SDS011;17063;50.892;4.702;2024-03-07T11:16:38;35.70;;;20.00;;
30247;SDS011;17063;50.892;4.702;2024-03-07T11:19:20;40.80;;;21.83;;
30247;SDS011;17063;50.892;4.702;2024-03-07T11:21:56;44.27;;;21.20;;
30247;SDS011;17063;50.892;4.702;2024-03-07T11:24:27;39.20;;;20.27;;
30247;SDS011;17063;50.892;4.702;2024-03-07T11:27:01;36.23;;;20.03;;
30247;SDS011;17063;50.892;4.702;2024-03-07T11:32:12;38.10;;;20.10;;
30247;SDS011;17063;50.892;4.702;2024-03-07T11:34:41;40.70;;;19.15;;
30247;SDS011;17063;50.892;4.702;2024-03-07T11:37:09;35.70;;;19.20;;
30247;SDS011;17063;50.892;4.702;2024-03-07T11:39:44;34.43;;;18.77;;
30247;SDS011;17063;50.892;4.702;2024-03-07T11:42:27;32.47;;;18.63;;
30247;SDS011;17063;50.892;4.702;2024-03-07T11:44:57;36.50;;;19.93;;
30247;SDS011;17063;50.892;4.702;2024-03-07T11:47:25;39.30;;;19.50;;
30247;SDS011;17063;50.892;4.702;2024-03-07T11:49:56;39.13;;;20.77;;
30247;SDS011;17063;50.892;4.702;2024-03-07T11:52:24;39.80;;;22.03;;
30247;SDS011;17063;50.892;4.702;2024-03-07T11:54:54;42.47;;;21.53;;
30247;SDS011;17063;50.892;4.702;2024-03-07T11:57:31;42.00;;;21.47;;
30247;SDS011;17063;50.892;4.702;2024-03-07T12:00:01;39.07;;;20.73;;
30247;SDS011;17063;50.892;4.702;2024-03-07T12:02:38;39.93;;;21.30;;
30247;SDS011;17063;50.892;4.702;2024-03-07T12:05:06;36.90;;;21.03;;
30247;SDS011;17063;50.892;4.702;2024-03-07T12:07:33;41.23;;;21.63;;
30247;SDS011;17063;50.892;4.702;2024-03-07T12:10:03;38.63;;;22.07;;
30247;SDS011;17063;50.892;4.702;2024-03-07T12:12:31;39.23;;;20.70;;
30247;SDS011;17063;50.892;4.702;2024-03-07T12:14:59;37.20;;;21.00;;
30247;SDS011;17063;50.892;4.702;2024-03-07T12:17:29;33.87;;;20.10;;
30247;SDS011;17063;50.892;4.702;2024-03-07T12:19:58;38.97;;;21.07;;
30247;SDS011;17063;50.892;4.702;2024-03-07T12:22:35;34.23;;;18.80;;
30247;SDS011;17063;50.892;4.702;2024-03-07T12:25:02;34.90;;;19.90;;
30247;SDS011;17063;50.892;4.702;2024-03-07T12:27:30;36.53;;;21.03;;
30247;SDS011;17063;50.892;4.702;2024-03-07T12:29:59;34.70;;;19.57;;
30247;SDS011;17063;50.892;4.702;2024-03-07T12:32:34;32.77;;;18.90;;
30247;SDS011;17063;50.892;4.702;2024-03-07T12:35:04;33.77;;;19.77;;
30247;SDS011;17063;50.892;4.702;2024-03-07T12:37:34;36.23;;;20.50;;
30247;SDS011;17063;50.892;4.702;2024-03-07T12:40:10;31.53;;;19.47;;
30247;SDS011;17063;50.892;4.702;2024-03-07T12:42:48;33.13;;;18.60;;
30247;SDS011;17063;50.892;4.702;2024-03-07T12:45:18;37.20;;;19.33;;
30247;SDS011;17063;50.892;4.702;2024-03-07T12:47:46;37.93;;;19.37;;
30247;SDS011;17063;50.892;4.702;2024-03-07T12:50:17;34.50;;;20.40;;
30247;SDS011;17063;50.892;4.702;2024-03-07T12:52:47;33.33;;;18.57;;
30247;SDS011;17063;50.892;4.702;2024-03-07T12:55:18;32.23;;;19.00;;
30247;SDS011;17063;50.892;4.702;2024-03-07T12:57:48;29.80;;;18.67;;
30247;SDS011;17063;50.892;4.702;2024-03-07T13:00:17;33.97;;;19.33;;
30247;SDS011;17063;50.892;4.702;2024-03-07T13:02:47;32.20;;;18.57;;
30247;SDS011;17063;50.892;4.702;2024-03-07T13:05:15;31.77;;;19.17;;
30247;SDS011;17063;50.892;4.702;2024-03-07T13:07:48;33.40;;;18.43;;
30247;SDS011;17063;50.892;4.702;2024-03-07T13:10:16;35.00;;;17.50;;
30247;SDS011;17063;50.892;4.702;2024-03-07T13:12:45;35.27;;;18.67;;
30247;SDS011;17063;50.892;4.702;2024-03-07T13:15:16;31.97;;;18.90;;
30247;SDS011;17063;50.892;4.702;2024-03-07T13:17:43;31.60;;;17.47;;
30247;SDS011;17063;50.892;4.702;2024-03-07T13:20:13;31.63;;;17.87;;
30247;SDS011;17063;50.892;4.702;2024-03-07T13:22:43;29.47;;;16.53;;
30247;SDS011;17063;50.892;4.702;2024-03-07T13:25:15;31.73;;;15.90;;
30247;SDS011;17063;50.892;4.702;2024-03-07T13:27:44;27.77;;;17.20;;
30247;SDS011;17063;50.892;4.702;2024-03-07T13:30:18;28.37;;;16.63;;
30247;SDS011;17063;50.892;4.702;2024-03-07T13:32:56;28.90;;;16.73;;
30247;SDS011;17063;50.892;4.702;2024-03-07T13:35:25;30.60;;;16.23;;
30247;SDS011;17063;50.892;4.702;2024-03-07T13:37:53;30.17;;;15.90;;
30247;SDS011;17063;50.892;4.702;2024-03-07T13:40:24;27.37;;;15.67;;
30247;SDS011;17063;50.892;4.702;2024-03-07T13:42:53;24.00;;;14.47;;
30247;SDS011;17063;50.892;4.702;2024-03-07T13:45:29;24.33;;;14.63;;
30247;SDS011;17063;50.892;4.702;2024-03-07T13:48:05;24.83;;;15.17;;
30247;SDS011;17063;50.892;4.702;2024-03-07T13:50:35;26.90;;;15.43;;
30247;SDS011;17063;50.892;4.702;2024-03-07T13:53:24;27.17;;;15.27;;
30247;SDS011;17063;50.892;4.702;2024-03-07T14:26:44;24.20;;;14.07;;
30247;SDS011;17063;50.892;4.702;2024-03-07T14:29:20;26.70;;;14.03;;
30247;SDS011;17063;50.892;4.702;2024-03-07T14:32:13;26.87;;;13.67;;
30247;SDS011;17063;50.892;4.702;2024-03-07T14:35:00;22.60;;;14.20;;
30247;SDS011;17063;50.892;4.702;2024-03-07T14:37:34;24.23;;;13.53;;
30247;SDS011;17063;50.892;4.702;2024-03-07T14:40:10;20.60;;;12.97;;
30247;SDS011;17063;50.892;4.702;2024-03-07T14:42:41;23.47;;;14.33;;
30247;SDS011;17063;50.892;4.702;2024-03-07T14:45:11;23.70;;;13.87;;
30247;SDS011;17063;50.892;4.702;2024-03-07T14:47:43;23.77;;;14.17;;
30247;SDS011;17063;50.892;4.702;2024-03-07T14:50:12;26.37;;;14.27;;
30247;SDS011;17063;50.892;4.702;2024-03-07T14:52:39;23.83;;;13.73;;
30247;SDS011;17063;50.892;4.702;2024-03-07T14:55:10;25.30;;;14.80;;
30247;SDS011;17063;50.892;4.702;2024-03-07T14:57:40;27.50;;;14.53;;
30247;SDS011;17063;50.892;4.702;2024-03-07T15:00:10;28.00;;;14.43;;
30247;SDS011;17063;50.892;4.702;2024-03-07T15:03:01;31.73;;;14.50;;
30247;SDS011;17063;50.892;4.702;2024-03-07T15:05:29;28.40;;;14.90;;
30247;SDS011;17063;50.892;4.702;2024-03-07T15:07:56;23.47;;;13.63;;
30247;SDS011;17063;50.892;4.702;2024-03-07T15:10:27;26.70;;;15.87;;
30247;SDS011;17063;50.892;4.702;2024-03-07T15:12:58;26.37;;;13.90;;